createdAt,value
2018-06-02T00:00:26.086Z,0.00
2018-06-02T00:01:26.217Z,0.00
2018-06-02T00:02:26.181Z,0.00
2018-06-02T00:03:26.169Z,0.00
2018-06-02T00:04:26.314Z,0.00
2018-06-02T00:05:26.279Z,0.00
2018-06-02T00:06:26.429Z,0.00
2018-06-02T00:07:26.410Z,0.00
2018-06-02T00:08:26.544Z,0.00
2018-06-02T00:09:26.505Z,0.00
2018-06-02T00:10:26.532Z,0.00
2018-06-02T00:11:26.657Z,0.00
2018-06-02T00:12:26.680Z,0.00
2018-06-02T00:13:26.807Z,0.00
2018-06-02T00:14:26.778Z,0.00
2018-06-02T00:15:26.798Z,0.00
2018-06-02T00:16:26.866Z,0.00
2018-06-02T00:17:26.876Z,0.00
2018-06-02T00:18:27.008Z,0.00
2018-06-02T00:19:26.971Z,0.00
2018-06-02T00:20:27.094Z,0.00
2018-06-02T00:21:27.102Z,0.00
2018-06-02T00:22:27.121Z,0.00
2018-06-02T00:23:27.269Z,0.00
2018-06-02T00:24:27.221Z,0.00
2018-06-02T00:25:27.368Z,0.00
2018-06-02T00:26:27.346Z,0.00
2018-06-02T00:27:27.500Z,0.00
2018-06-02T00:28:27.468Z,0.00
2018-06-02T00:29:27.607Z,0.00
2018-06-02T00:30:27.599Z,0.00
2018-06-02T00:31:27.732Z,0.00
2018-06-02T00:32:27.676Z,0.00
2018-06-02T00:33:27.706Z,0.00
2018-06-02T00:34:27.725Z,0.00
2018-06-02T00:35:27.864Z,0.00
2018-06-02T00:36:27.819Z,0.00
2018-06-02T00:37:27.958Z,0.00
2018-06-02T00:38:27.952Z,0.00
2018-06-02T00:39:28.086Z,0.00
2018-06-02T00:40:28.089Z,0.00
2018-06-02T00:41:28.069Z,0.00
2018-06-02T00:42:28.199Z,0.00
2018-06-02T00:43:28.339Z,0.00
2018-06-02T00:44:28.357Z,0.00
2018-06-02T00:45:28.338Z,0.00
2018-06-02T00:46:28.322Z,0.00
2018-06-02T00:47:28.452Z,0.00
2018-06-02T00:48:28.421Z,0.00
2018-06-02T00:49:28.578Z,0.00
2018-06-02T00:50:28.559Z,0.00
2018-06-02T00:51:28.688Z,0.00
2018-06-02T00:52:31.392Z,0.00
2018-06-02T00:53:28.679Z,0.00
2018-06-02T00:54:28.788Z,0.00
2018-06-02T00:55:28.816Z,0.00
2018-06-02T00:56:28.950Z,0.00
2018-06-02T00:57:28.915Z,0.00
2018-06-02T00:58:28.928Z,0.00
2018-06-02T00:59:29.032Z,0.00
2018-06-02T01:00:29.020Z,0.00
2018-06-02T01:01:29.157Z,0.00
2018-06-02T01:02:29.158Z,0.00
2018-06-02T01:03:29.289Z,0.00
2018-06-02T01:04:29.240Z,0.00
2018-06-02T01:05:29.288Z,0.00
2018-06-02T01:06:29.403Z,0.00
2018-06-02T01:07:29.417Z,0.00
2018-06-02T01:08:29.550Z,0.00
2018-06-02T01:09:29.512Z,0.00
2018-06-02T01:10:29.531Z,0.00
2018-06-02T01:11:29.640Z,0.00
2018-06-02T01:12:29.647Z,0.00
2018-06-02T01:13:29.752Z,0.00
2018-06-02T01:14:29.741Z,0.00
2018-06-02T01:15:29.818Z,0.00
2018-06-02T01:16:29.917Z,0.00
2018-06-02T01:17:29.963Z,0.00
2018-06-02T01:18:29.915Z,0.00
2018-06-02T01:19:30.091Z,0.00
2018-06-02T01:20:30.105Z,0.00
2018-06-02T01:21:30.225Z,0.00
2018-06-02T01:22:30.207Z,0.00
2018-06-02T01:23:30.245Z,0.00
2018-06-02T01:24:30.214Z,0.00
2018-06-02T01:25:30.305Z,0.00
2018-06-02T01:26:30.320Z,0.00
2018-06-02T01:27:30.454Z,0.00
2018-06-02T01:28:30.423Z,0.00
2018-06-02T01:29:30.516Z,0.00
2018-06-02T01:30:30.643Z,0.00
2018-06-02T01:31:30.564Z,0.00
2018-06-02T01:32:30.650Z,0.00
2018-06-02T01:33:30.759Z,0.00
2018-06-02T01:34:30.904Z,0.00
2018-06-02T01:35:30.869Z,0.00
2018-06-02T01:36:31.030Z,0.00
2018-06-02T01:37:30.925Z,0.00
2018-06-02T01:38:31.015Z,0.00
2018-06-02T01:39:31.020Z,0.00
2018-06-02T01:40:31.016Z,0.00
2018-06-02T01:41:31.177Z,0.00
2018-06-02T01:42:31.215Z,0.00
2018-06-02T01:43:31.296Z,0.00
2018-06-02T01:44:31.211Z,0.00
2018-06-02T01:45:31.272Z,0.00
2018-06-02T01:46:31.374Z,0.00
2018-06-02T01:47:31.970Z,0.00
2018-06-02T01:48:31.459Z,0.00
2018-06-02T01:49:31.479Z,0.00
2018-06-02T01:50:31.506Z,0.00
2018-06-02T01:51:31.601Z,0.00
2018-06-02T01:52:31.727Z,0.00
2018-06-02T01:53:31.729Z,0.00
2018-06-02T01:54:31.744Z,0.00
2018-06-02T01:55:31.754Z,0.00
2018-06-02T01:56:31.879Z,0.00
2018-06-02T01:57:31.976Z,0.00
2018-06-02T01:58:32.097Z,0.00
2018-06-02T01:59:32.142Z,0.00
2018-06-02T02:00:32.235Z,0.00
2018-06-02T02:01:32.342Z,0.00
2018-06-02T02:02:32.271Z,0.00
2018-06-02T02:03:32.296Z,0.00
2018-06-02T02:04:32.286Z,0.00
2018-06-02T02:05:32.249Z,0.00
2018-06-02T02:06:32.309Z,0.00
2018-06-02T02:07:32.434Z,0.00
2018-06-02T02:08:32.488Z,0.00
2018-06-02T02:09:32.699Z,0.00
2018-06-02T02:10:33.125Z,0.00
2018-06-02T02:11:32.582Z,0.00
2018-06-02T02:12:32.604Z,0.00
2018-06-02T02:13:32.660Z,0.00
2018-06-02T02:14:32.855Z,0.00
2018-06-02T02:15:32.832Z,0.00
2018-06-02T02:16:32.799Z,0.00
2018-06-02T02:17:32.846Z,0.00
2018-06-02T02:18:32.913Z,0.00
2018-06-02T02:19:33.116Z,0.00
2018-06-02T02:20:32.992Z,0.00
2018-06-02T02:21:33.138Z,0.00
2018-06-02T02:22:33.139Z,0.00
2018-06-02T02:23:33.162Z,0.00
2018-06-02T02:24:33.341Z,0.00
2018-06-02T02:25:33.244Z,0.00
2018-06-02T02:26:33.505Z,0.00
2018-06-02T02:27:33.461Z,0.00
2018-06-02T02:28:33.393Z,0.00
2018-06-02T02:29:33.584Z,0.00
2018-06-02T02:30:33.511Z,0.00
2018-06-02T02:31:33.538Z,0.00
2018-06-02T02:32:33.590Z,0.00
2018-06-02T02:33:33.692Z,0.00
2018-06-02T02:34:33.682Z,0.00
2018-06-02T02:35:33.855Z,0.00
2018-06-02T02:36:33.988Z,0.00
2018-06-02T02:37:33.918Z,0.00
2018-06-02T02:38:33.884Z,0.00
2018-06-02T02:39:33.937Z,0.00
2018-06-02T02:40:34.093Z,0.00
2018-06-02T02:41:34.033Z,0.00
2018-06-02T02:42:34.144Z,0.00
2018-06-02T02:43:34.135Z,0.00
2018-06-02T02:44:34.238Z,0.00
2018-06-02T02:45:34.346Z,0.00
2018-06-02T02:46:34.286Z,0.00
2018-06-02T02:47:34.378Z,0.00
2018-06-02T02:48:34.428Z,0.00
2018-06-02T02:49:34.428Z,0.00
2018-06-02T02:50:34.515Z,0.00
2018-06-02T02:51:34.531Z,0.00
2018-06-02T02:52:34.602Z,0.00
2018-06-02T02:53:34.703Z,0.00
2018-06-02T02:54:34.678Z,0.00
2018-06-02T02:55:34.889Z,0.00
2018-06-02T02:56:34.817Z,0.00
2018-06-02T02:57:34.830Z,0.00
2018-06-02T02:58:34.959Z,0.00
2018-06-02T02:59:34.925Z,0.00
2018-06-02T03:00:35.067Z,0.00
2018-06-02T03:01:35.050Z,0.00
2018-06-02T03:02:35.194Z,0.00
2018-06-02T03:03:35.160Z,0.00
2018-06-02T03:04:35.165Z,0.00
2018-06-02T03:05:35.293Z,0.00
2018-06-02T03:06:35.324Z,0.00
2018-06-02T03:07:35.456Z,0.00
2018-06-02T03:08:35.414Z,0.00
2018-06-02T03:09:35.421Z,0.00
2018-06-02T03:10:35.540Z,0.00
2018-06-02T03:11:35.680Z,0.00
2018-06-02T03:12:35.662Z,0.00
2018-06-02T03:13:35.655Z,0.00
2018-06-02T03:14:35.795Z,0.00
2018-06-02T03:15:35.755Z,0.00
2018-06-02T03:16:35.791Z,0.00
2018-06-02T03:17:35.907Z,0.00
2018-06-02T03:18:35.925Z,0.00
2018-06-02T03:19:36.062Z,0.00
2018-06-02T03:20:36.016Z,0.00
2018-06-02T03:21:36.005Z,0.00
2018-06-02T03:22:36.155Z,0.00
2018-06-02T03:23:36.125Z,5.63
2018-06-02T03:24:36.262Z,5.63
2018-06-02T03:25:36.246Z,5.63
2018-06-02T03:26:36.387Z,5.63
2018-06-02T03:27:36.348Z,5.63
2018-06-02T03:28:36.360Z,5.63
2018-06-02T03:29:36.412Z,5.63
2018-06-02T03:30:36.511Z,5.63
2018-06-02T03:31:36.638Z,5.63
2018-06-02T03:32:36.624Z,11.25
2018-06-02T03:33:36.597Z,11.25
2018-06-02T03:34:36.734Z,11.25
2018-06-02T03:35:36.722Z,11.25
2018-06-02T03:36:36.853Z,11.25
2018-06-02T03:37:36.853Z,11.25
2018-06-02T03:38:37.005Z,16.88
2018-06-02T03:39:37.023Z,16.88
2018-06-02T03:40:36.963Z,16.88
2018-06-02T03:41:37.000Z,16.88
2018-06-02T03:42:37.099Z,16.88
2018-06-02T03:43:37.231Z,22.50
2018-06-02T03:44:37.212Z,22.50
2018-06-02T03:45:37.196Z,22.50
2018-06-02T03:46:37.339Z,22.50
2018-06-02T03:47:37.336Z,22.50
2018-06-02T03:48:37.431Z,28.13
2018-06-02T03:49:37.466Z,28.13
2018-06-02T03:50:37.464Z,28.13
2018-06-02T03:51:37.604Z,28.13
2018-06-02T03:52:37.558Z,33.75
2018-06-02T03:53:37.704Z,33.75
2018-06-02T03:54:37.706Z,39.38
2018-06-02T03:55:37.684Z,39.38
2018-06-02T03:56:37.807Z,39.38
2018-06-02T03:57:37.799Z,39.38
2018-06-02T03:58:37.942Z,45.00
2018-06-02T03:59:37.910Z,45.00
2018-06-02T04:00:37.938Z,45.00
2018-06-02T04:01:38.054Z,45.00
2018-06-02T04:02:38.063Z,50.63
2018-06-02T04:03:38.200Z,50.63
2018-06-02T04:04:38.169Z,50.63
2018-06-02T04:05:38.305Z,56.25
2018-06-02T04:06:38.286Z,56.25
2018-06-02T04:07:38.272Z,56.25
2018-06-02T04:08:38.402Z,56.25
2018-06-02T04:09:38.411Z,61.88
2018-06-02T04:10:38.426Z,61.88
2018-06-02T04:11:38.472Z,61.88
2018-06-02T04:12:38.522Z,61.88
2018-06-02T04:13:38.576Z,61.88
2018-06-02T04:14:38.653Z,67.50
2018-06-02T04:15:38.673Z,67.50
2018-06-02T04:16:38.719Z,67.50
2018-06-02T04:17:38.767Z,73.13
2018-06-02T04:18:38.816Z,73.13
2018-06-02T04:19:38.905Z,73.13
2018-06-02T04:20:38.916Z,73.13
2018-06-02T04:21:38.963Z,78.75
2018-06-02T04:22:39.019Z,78.75
2018-06-02T04:23:39.066Z,78.75
2018-06-02T04:24:39.136Z,78.75
2018-06-02T04:25:39.194Z,84.38
2018-06-02T04:26:39.213Z,84.38
2018-06-02T04:27:39.261Z,84.38
2018-06-02T04:28:39.342Z,84.38
2018-06-02T04:29:39.360Z,90.00
2018-06-02T04:30:39.448Z,90.00
2018-06-02T04:31:39.458Z,90.00
2018-06-02T04:32:39.506Z,90.00
2018-06-02T04:33:39.559Z,95.63
2018-06-02T04:34:39.606Z,95.63
2018-06-02T04:35:39.695Z,95.63
2018-06-02T04:36:39.708Z,101.25
2018-06-02T04:37:39.753Z,101.25
2018-06-02T04:38:39.805Z,101.25
2018-06-02T04:39:39.853Z,106.88
2018-06-02T04:40:39.935Z,106.88
2018-06-02T04:41:40.032Z,106.88
2018-06-02T04:42:40.003Z,112.50
2018-06-02T04:43:40.055Z,112.50
2018-06-02T04:44:40.100Z,112.50
2018-06-02T04:45:40.174Z,112.50
2018-06-02T04:46:40.224Z,112.50
2018-06-02T04:47:40.250Z,118.13
2018-06-02T04:48:40.301Z,118.13
2018-06-02T04:49:40.356Z,118.13
2018-06-02T04:50:40.400Z,118.13
2018-06-02T04:51:40.491Z,118.13
2018-06-02T04:52:40.496Z,123.75
2018-06-02T04:53:40.549Z,123.75
2018-06-02T04:54:40.598Z,123.75
2018-06-02T04:55:40.646Z,129.38
2018-06-02T04:56:40.731Z,129.38
2018-06-02T04:57:40.747Z,135.00
2018-06-02T04:58:40.800Z,135.00
2018-06-02T04:59:40.845Z,135.00
2018-06-02T05:00:40.896Z,140.63
2018-06-02T05:01:40.972Z,140.63
2018-06-02T05:02:41.020Z,146.25
2018-06-02T05:03:41.041Z,146.25
2018-06-02T05:04:41.093Z,146.25
2018-06-02T05:05:41.145Z,151.88
2018-06-02T05:06:41.194Z,151.88
2018-06-02T05:07:41.272Z,151.88
2018-06-02T05:08:41.292Z,157.50
2018-06-02T05:09:41.342Z,168.75
2018-06-02T05:10:41.392Z,163.13
2018-06-02T05:11:41.449Z,163.13
2018-06-02T05:12:41.522Z,168.75
2018-06-02T05:13:41.557Z,163.13
2018-06-02T05:14:41.598Z,174.38
2018-06-02T05:15:41.640Z,168.75
2018-06-02T05:16:41.691Z,174.38
2018-06-02T05:17:41.774Z,174.38
2018-06-02T05:18:41.790Z,174.38
2018-06-02T05:19:41.839Z,174.38
2018-06-02T05:20:41.889Z,180.00
2018-06-02T05:21:41.939Z,180.00
2018-06-02T05:22:42.027Z,180.00
2018-06-02T05:23:42.040Z,185.63
2018-06-02T05:24:42.090Z,185.63
2018-06-02T05:25:42.139Z,185.63
2018-06-02T05:26:42.189Z,185.63
2018-06-02T05:27:42.268Z,191.25
2018-06-02T05:28:42.291Z,191.25
2018-06-02T05:29:42.341Z,196.88
2018-06-02T05:30:42.391Z,208.13
2018-06-02T05:31:42.440Z,213.75
2018-06-02T05:32:42.519Z,219.38
2018-06-02T05:33:42.557Z,230.63
2018-06-02T05:34:42.591Z,230.63
2018-06-02T05:35:42.638Z,230.63
2018-06-02T05:36:42.689Z,230.63
2018-06-02T05:37:42.764Z,230.63
2018-06-02T05:38:42.791Z,230.63
2018-06-02T05:39:42.864Z,225.00
2018-06-02T05:40:42.891Z,213.75
2018-06-02T05:41:42.940Z,208.13
2018-06-02T05:42:42.991Z,208.13
2018-06-02T05:43:43.063Z,208.13
2018-06-02T05:44:43.132Z,208.13
2018-06-02T05:45:43.141Z,208.13
2018-06-02T05:46:43.190Z,208.13
2018-06-02T05:47:43.242Z,213.75
2018-06-02T05:48:43.295Z,219.38
2018-06-02T05:49:43.363Z,219.38
2018-06-02T05:50:43.394Z,219.38
2018-06-02T05:51:43.439Z,225.00
2018-06-02T05:52:43.490Z,225.00
2018-06-02T05:53:43.541Z,230.63
2018-06-02T05:54:43.709Z,241.88
2018-06-02T05:55:43.643Z,258.75
2018-06-02T05:56:43.691Z,258.75
2018-06-02T05:57:43.742Z,264.38
2018-06-02T05:58:43.792Z,270.00
2018-06-02T05:59:45.167Z,270.00
2018-06-02T06:00:43.919Z,264.38
2018-06-02T06:01:43.944Z,270.00
2018-06-02T06:02:43.995Z,270.00
2018-06-02T06:03:44.042Z,264.38
2018-06-02T06:04:44.096Z,270.00
2018-06-02T06:05:44.168Z,281.25
2018-06-02T06:06:44.196Z,292.50
2018-06-02T06:07:44.250Z,292.50
2018-06-02T06:08:44.294Z,292.50
2018-06-02T06:09:44.347Z,298.13
2018-06-02T06:10:44.421Z,298.13
2018-06-02T06:11:44.453Z,303.75
2018-06-02T06:12:44.496Z,320.63
2018-06-02T06:13:44.550Z,326.25
2018-06-02T06:14:44.601Z,326.25
2018-06-02T06:15:44.677Z,315.00
2018-06-02T06:16:44.725Z,315.00
2018-06-02T06:17:44.754Z,315.00
2018-06-02T06:18:44.801Z,309.38
2018-06-02T06:19:44.852Z,309.38
2018-06-02T06:20:44.933Z,292.50
2018-06-02T06:21:44.955Z,264.38
2018-06-02T06:22:45.007Z,225.00
2018-06-02T06:23:45.053Z,213.75
2018-06-02T06:24:45.107Z,202.50
2018-06-02T06:25:45.182Z,213.75
2018-06-02T06:26:45.245Z,225.00
2018-06-02T06:27:45.259Z,230.63
2018-06-02T06:28:45.313Z,236.25
2018-06-02T06:29:45.361Z,236.25
2018-06-02T06:30:45.412Z,241.88
2018-06-02T06:31:45.495Z,247.50
2018-06-02T06:32:45.513Z,253.13
2018-06-02T06:33:45.567Z,241.88
2018-06-02T06:34:45.613Z,230.63
2018-06-02T06:35:45.666Z,219.38
2018-06-02T06:36:45.751Z,219.38
2018-06-02T06:37:45.765Z,230.63
2018-06-02T06:38:45.817Z,247.50
2018-06-02T06:39:45.866Z,275.63
2018-06-02T06:40:45.921Z,315.00
2018-06-02T06:41:45.991Z,388.13
2018-06-02T06:42:46.049Z,388.13
2018-06-02T06:43:46.068Z,399.38
2018-06-02T06:44:46.173Z,770.63
2018-06-02T06:45:46.172Z,478.13
2018-06-02T06:46:46.221Z,585.00
2018-06-02T06:47:46.294Z,500.63
2018-06-02T06:48:46.326Z,315.00
2018-06-02T06:49:46.373Z,309.38
2018-06-02T06:50:46.433Z,326.25
2018-06-02T06:51:46.475Z,410.63
2018-06-02T06:52:46.551Z,956.25
2018-06-02T06:53:46.601Z,973.13
2018-06-02T06:54:46.628Z,984.38
2018-06-02T06:55:46.677Z,922.50
2018-06-02T06:56:46.733Z,1001.25
2018-06-02T06:57:46.813Z,1012.50
2018-06-02T06:58:46.858Z,1006.88
2018-06-02T06:59:46.882Z,967.50
2018-06-02T07:00:46.938Z,787.50
2018-06-02T07:01:46.985Z,421.88
2018-06-02T07:02:47.036Z,590.63
2018-06-02T07:03:47.138Z,866.25
2018-06-02T07:04:47.137Z,1068.75
2018-06-02T07:05:47.194Z,1074.38
2018-06-02T07:06:47.242Z,1080.00
2018-06-02T07:07:47.294Z,1096.88
2018-06-02T07:08:47.380Z,1091.25
2018-06-02T07:09:47.400Z,1096.88
2018-06-02T07:10:47.451Z,1091.25
2018-06-02T07:11:47.510Z,1096.88
2018-06-02T07:12:47.561Z,1091.25
2018-06-02T07:13:47.651Z,1102.50
2018-06-02T07:14:47.659Z,1108.13
2018-06-02T07:15:47.708Z,1125.00
2018-06-02T07:16:47.765Z,1147.50
2018-06-02T07:17:47.861Z,1141.88
2018-06-02T07:18:47.890Z,1147.50
2018-06-02T07:19:47.941Z,1158.75
2018-06-02T07:20:47.969Z,1164.38
2018-06-02T07:21:49.039Z,1170.00
2018-06-02T07:22:48.076Z,1186.88
2018-06-02T07:23:48.125Z,1198.13
2018-06-02T07:24:48.233Z,1203.75
2018-06-02T07:25:48.231Z,1215.00
2018-06-02T07:26:48.289Z,1231.88
2018-06-02T07:27:48.337Z,1243.13
2018-06-02T07:28:48.390Z,1265.63
2018-06-02T07:29:48.464Z,1293.75
2018-06-02T07:30:48.496Z,1282.50
2018-06-02T07:31:48.552Z,1271.25
2018-06-02T07:32:48.599Z,1299.38
2018-06-02T07:33:48.655Z,1350.00
2018-06-02T07:34:48.739Z,1372.50
2018-06-02T07:35:48.758Z,1395.00
2018-06-02T07:36:48.812Z,1423.13
2018-06-02T07:37:48.863Z,1451.25
2018-06-02T07:38:48.916Z,1462.50
2018-06-02T07:39:49.001Z,1434.38
2018-06-02T07:40:49.019Z,1395.00
2018-06-02T07:41:49.075Z,1293.75
2018-06-02T07:42:49.129Z,1220.63
2018-06-02T07:43:49.181Z,939.38
2018-06-02T07:44:49.277Z,888.75
2018-06-02T07:45:49.285Z,990.00
2018-06-02T07:46:49.336Z,787.50
2018-06-02T07:47:49.389Z,922.50
2018-06-02T07:48:49.450Z,1063.13
2018-06-02T07:49:49.560Z,731.25
2018-06-02T07:50:49.596Z,815.63
2018-06-02T07:51:49.631Z,826.88
2018-06-02T07:52:49.660Z,736.88
2018-06-02T07:53:49.713Z,691.88
2018-06-02T07:54:49.759Z,630.00
2018-06-02T07:55:49.837Z,618.75
2018-06-02T07:56:49.890Z,635.63
2018-06-02T07:57:49.923Z,691.88
2018-06-02T07:58:49.973Z,748.13
2018-06-02T07:59:50.022Z,770.63
2018-06-02T08:00:50.078Z,804.38
2018-06-02T08:01:50.152Z,770.63
2018-06-02T08:02:50.184Z,793.13
2018-06-02T08:03:50.234Z,765.00
2018-06-02T08:04:50.286Z,748.13
2018-06-02T08:05:50.339Z,798.75
2018-06-02T08:06:50.417Z,793.13
2018-06-02T08:07:50.443Z,1018.13
2018-06-02T08:08:50.495Z,1350.00
2018-06-02T08:09:50.552Z,1085.63
2018-06-02T08:10:50.599Z,1074.38
2018-06-02T08:11:50.682Z,939.38
2018-06-02T08:12:50.704Z,1586.25
2018-06-02T08:13:50.756Z,1743.75
2018-06-02T08:14:50.811Z,2070.00
2018-06-02T08:15:50.859Z,2109.38
2018-06-02T08:16:50.937Z,2137.50
2018-06-02T08:17:50.974Z,2171.25
2018-06-02T08:18:51.025Z,2199.38
2018-06-02T08:19:51.069Z,2210.63
2018-06-02T08:20:51.123Z,2216.25
2018-06-02T08:21:51.217Z,2216.25
2018-06-02T08:22:51.228Z,2210.63
2018-06-02T08:23:51.280Z,2221.88
2018-06-02T08:24:51.334Z,2210.63
2018-06-02T08:25:51.388Z,2233.13
2018-06-02T08:26:51.466Z,2250.00
2018-06-02T08:27:51.493Z,2261.25
2018-06-02T08:28:51.568Z,2255.63
2018-06-02T08:29:51.604Z,2255.63
2018-06-02T08:30:51.655Z,2283.75
2018-06-02T08:31:51.705Z,2311.88
2018-06-02T08:32:51.757Z,2356.88
2018-06-02T08:33:51.840Z,2390.63
2018-06-02T08:34:51.867Z,2424.38
2018-06-02T08:35:51.916Z,2435.63
2018-06-02T08:36:51.980Z,2469.38
2018-06-02T08:37:52.068Z,2491.88
2018-06-02T08:38:52.082Z,2514.38
2018-06-02T08:39:52.135Z,2542.50
2018-06-02T08:40:52.188Z,2576.25
2018-06-02T08:41:52.243Z,2621.25
2018-06-02T08:42:52.319Z,2643.75
2018-06-02T08:43:52.373Z,2655.00
2018-06-02T08:44:52.402Z,2643.75
2018-06-02T08:45:52.456Z,2615.63
2018-06-02T08:46:52.511Z,2598.75
2018-06-02T08:47:52.571Z,2581.88
2018-06-02T08:48:52.658Z,2565.00
2018-06-02T08:49:52.687Z,2525.63
2018-06-02T08:50:52.729Z,2508.75
2018-06-02T08:51:52.779Z,2469.38
2018-06-02T08:52:52.833Z,2452.50
2018-06-02T08:53:52.921Z,2401.88
2018-06-02T08:54:52.943Z,2379.38
2018-06-02T08:55:52.996Z,2373.75
2018-06-02T08:56:53.051Z,2401.88
2018-06-02T08:57:53.104Z,2424.38
2018-06-02T08:58:53.184Z,2452.50
2018-06-02T08:59:53.215Z,2435.63
2018-06-02T09:00:53.271Z,2452.50
2018-06-02T09:01:53.322Z,2446.88
2018-06-02T09:02:53.383Z,2430.00
2018-06-02T09:03:53.454Z,2379.38
2018-06-02T09:04:53.511Z,2328.75
2018-06-02T09:05:53.539Z,2244.38
2018-06-02T09:06:53.596Z,2176.88
2018-06-02T09:07:53.650Z,2126.25
2018-06-02T09:08:53.727Z,2098.13
2018-06-02T09:09:53.758Z,2070.00
2018-06-02T09:10:53.834Z,2053.13
2018-06-02T09:11:53.865Z,2025.00
2018-06-02T09:12:53.919Z,2019.38
2018-06-02T09:13:53.972Z,1996.88
2018-06-02T09:14:54.027Z,1985.63
2018-06-02T09:15:54.108Z,1951.88
2018-06-02T09:16:54.140Z,1940.63
2018-06-02T09:17:54.191Z,1929.38
2018-06-02T09:18:54.256Z,1923.75
2018-06-02T09:19:54.302Z,1906.88
2018-06-02T09:20:54.379Z,1878.75
2018-06-02T09:21:54.410Z,1861.88
2018-06-02T09:22:54.466Z,1839.38
2018-06-02T09:23:54.518Z,1839.38
2018-06-02T09:24:54.575Z,1850.63
2018-06-02T09:25:54.660Z,1856.25
2018-06-02T09:26:54.689Z,1490.63
2018-06-02T09:27:54.788Z,1794.38
2018-06-02T09:28:54.796Z,1811.25
2018-06-02T09:29:54.846Z,1771.88
2018-06-02T09:30:54.931Z,1743.75
2018-06-02T09:31:54.960Z,1726.88
2018-06-02T09:32:55.010Z,1704.38
2018-06-02T09:33:55.067Z,1676.25
2018-06-02T09:34:55.133Z,1636.88
2018-06-02T09:35:55.199Z,1608.75
2018-06-02T09:36:55.231Z,1591.88
2018-06-02T09:37:55.289Z,1530.00
2018-06-02T09:38:55.341Z,1423.13
2018-06-02T09:39:55.391Z,1468.13
2018-06-02T09:40:55.484Z,1440.00
2018-06-02T09:41:55.504Z,1428.75
2018-06-02T09:42:55.556Z,1417.50
2018-06-02T09:43:55.613Z,1400.63
2018-06-02T09:44:55.665Z,1395.00
2018-06-02T09:45:55.746Z,1400.63
2018-06-02T09:46:55.803Z,1423.13
2018-06-02T09:47:55.828Z,1440.00
2018-06-02T09:48:55.886Z,1473.75
2018-06-02T09:49:55.947Z,1496.25
2018-06-02T09:50:55.997Z,1569.38
2018-06-02T09:51:56.071Z,1620.00
2018-06-02T09:52:56.103Z,1693.13
2018-06-02T09:53:56.158Z,1811.25
2018-06-02T09:54:56.213Z,1901.25
2018-06-02T09:55:56.270Z,2013.75
2018-06-02T09:56:56.353Z,2154.38
2018-06-02T09:57:56.377Z,2300.63
2018-06-02T09:58:56.434Z,2480.63
2018-06-02T09:59:56.486Z,2649.38
2018-06-02T10:00:56.542Z,2874.38
2018-06-02T10:01:56.625Z,3031.88
2018-06-02T10:02:56.650Z,3161.25
2018-06-02T10:03:56.707Z,3313.13
2018-06-02T10:04:56.759Z,3459.38
2018-06-02T10:05:56.826Z,3560.63
2018-06-02T10:06:56.901Z,3645.00
2018-06-02T10:07:56.923Z,3628.13
2018-06-02T10:08:56.981Z,3588.75
2018-06-02T10:09:57.035Z,3526.88
2018-06-02T10:10:57.092Z,3510.00
2018-06-02T10:11:57.183Z,3521.25
2018-06-02T10:12:57.201Z,3538.13
2018-06-02T10:13:57.257Z,3571.88
2018-06-02T10:14:57.315Z,3560.63
2018-06-02T10:15:57.376Z,3515.63
2018-06-02T10:16:57.454Z,3448.13
2018-06-02T10:17:57.502Z,3425.63
2018-06-02T10:18:57.534Z,3363.75
2018-06-02T10:19:57.590Z,3330.00
2018-06-02T10:20:57.643Z,3290.63
2018-06-02T10:21:57.725Z,3273.75
2018-06-02T10:22:57.778Z,3313.13
2018-06-02T10:23:57.813Z,3397.50
2018-06-02T10:24:57.868Z,3504.38
2018-06-02T10:25:57.924Z,3616.88
2018-06-02T10:26:57.977Z,3695.63
2018-06-02T10:27:58.058Z,3701.25
2018-06-02T10:28:58.110Z,3628.13
2018-06-02T10:29:58.142Z,3465.00
2018-06-02T10:30:58.199Z,3279.38
2018-06-02T10:31:58.253Z,3144.38
2018-06-02T10:32:58.310Z,3099.38
2018-06-02T10:33:58.399Z,3076.88
2018-06-02T10:34:58.417Z,3110.63
2018-06-02T10:35:58.471Z,3211.88
2018-06-02T10:36:58.530Z,3290.63
2018-06-02T10:37:58.584Z,3318.75
2018-06-02T10:38:58.681Z,3273.75
2018-06-02T10:39:58.697Z,3256.88
2018-06-02T10:40:58.763Z,3223.13
2018-06-02T10:41:58.808Z,3206.25
2018-06-02T10:42:58.864Z,3183.75
2018-06-02T10:43:58.952Z,3110.63
2018-06-02T10:44:58.978Z,2992.50
2018-06-02T10:45:59.045Z,2846.25
2018-06-02T10:46:59.092Z,2711.25
2018-06-02T10:47:59.149Z,2548.13
2018-06-02T10:48:59.230Z,2356.88
2018-06-02T10:49:59.291Z,2221.88
2018-06-02T10:51:00.064Z,2126.25
2018-06-02T10:51:59.377Z,2036.25
2018-06-02T10:52:59.435Z,1996.88
2018-06-02T10:53:59.495Z,1968.75
2018-06-02T10:54:59.575Z,1940.63
2018-06-02T10:55:59.609Z,1935.00
2018-06-02T10:56:59.665Z,1951.88
2018-06-02T10:57:59.724Z,1963.13
2018-06-02T10:58:59.781Z,1991.25
2018-06-02T10:59:59.869Z,2019.38
2018-06-02T11:00:59.897Z,2036.25
2018-06-02T11:01:59.950Z,2064.38
2018-06-02T11:03:00.008Z,2075.63
2018-06-02T11:04:00.066Z,2098.13
2018-06-02T11:05:00.155Z,2120.63
2018-06-02T11:06:00.177Z,2171.25
2018-06-02T11:07:00.241Z,2210.63
2018-06-02T11:08:00.290Z,2266.88
2018-06-02T11:09:00.370Z,2351.25
2018-06-02T11:10:00.450Z,2379.38
2018-06-02T11:11:00.469Z,2452.50
2018-06-02T11:12:00.518Z,2520.00
2018-06-02T11:13:00.576Z,2565.00
2018-06-02T11:14:00.632Z,2626.88
2018-06-02T11:15:00.721Z,2660.63
2018-06-02T11:16:00.745Z,2688.75
2018-06-02T11:17:00.801Z,2750.63
2018-06-02T11:18:00.858Z,2790.00
2018-06-02T11:19:00.917Z,2818.13
2018-06-02T11:20:00.996Z,2846.25
2018-06-02T11:21:01.058Z,2857.50
2018-06-02T11:22:01.088Z,2857.50
2018-06-02T11:23:01.146Z,2896.88
2018-06-02T11:24:01.201Z,2925.00
2018-06-02T11:25:01.257Z,2975.63
2018-06-02T11:26:01.347Z,2998.13
2018-06-02T11:27:01.371Z,3043.13
2018-06-02T11:28:01.431Z,3076.88
2018-06-02T11:29:01.486Z,3116.25
2018-06-02T11:30:01.547Z,3138.75
2018-06-02T11:31:01.630Z,3206.25
2018-06-02T11:32:01.660Z,3273.75
2018-06-02T11:33:01.718Z,3324.38
2018-06-02T11:34:01.773Z,3335.63
2018-06-02T11:35:01.835Z,3346.88
2018-06-02T11:36:01.912Z,3369.38
2018-06-02T11:37:01.950Z,3380.63
2018-06-02T11:38:02.008Z,3391.88
2018-06-02T11:39:02.069Z,3425.63
2018-06-02T11:40:02.123Z,3476.25
2018-06-02T11:41:02.204Z,3543.75
2018-06-02T11:42:02.262Z,3560.63
2018-06-02T11:43:02.297Z,3611.25
2018-06-02T11:44:02.366Z,3622.50
2018-06-02T11:45:02.413Z,3667.50
2018-06-02T11:46:02.469Z,3661.88
2018-06-02T11:47:02.559Z,3690.00
2018-06-02T11:48:02.587Z,3695.63
2018-06-02T11:49:02.643Z,3690.00
2018-06-02T11:50:02.702Z,3661.88
2018-06-02T11:51:02.759Z,3633.75
2018-06-02T11:52:02.844Z,3611.25
2018-06-02T11:53:02.873Z,3588.75
2018-06-02T11:54:02.935Z,3566.25
2018-06-02T11:55:02.988Z,3549.38
2018-06-02T11:56:03.048Z,3504.38
2018-06-02T11:57:03.136Z,3493.13
2018-06-02T11:58:03.163Z,3481.88
2018-06-02T11:59:03.218Z,3493.13
2018-06-02T12:00:03.275Z,3487.50
2018-06-02T12:01:03.340Z,3481.88
2018-06-02T12:02:03.413Z,3431.25
2018-06-02T12:03:03.479Z,3397.50
2018-06-02T12:04:03.504Z,3352.50
2018-06-02T12:05:03.563Z,3335.63
2018-06-02T12:06:03.623Z,3268.13
2018-06-02T12:07:03.678Z,3195.00
2018-06-02T12:08:03.763Z,3150.00
2018-06-02T12:09:03.792Z,3071.25
2018-06-02T12:10:03.851Z,3015.00
2018-06-02T12:11:03.907Z,2947.50
2018-06-02T12:12:03.970Z,2919.38
2018-06-02T12:13:04.048Z,2902.50
2018-06-02T12:14:04.079Z,2857.50
2018-06-02T12:15:04.145Z,2846.25
2018-06-02T12:16:04.198Z,2840.63
2018-06-02T12:17:04.252Z,2835.00
2018-06-02T12:18:04.335Z,2851.88
2018-06-02T12:19:04.374Z,2896.88
2018-06-02T12:20:04.425Z,2925.00
2018-06-02T12:21:04.481Z,2970.00
2018-06-02T12:22:04.542Z,3009.38
2018-06-02T12:23:04.630Z,3043.13
2018-06-02T12:24:04.659Z,3043.13
2018-06-02T12:25:04.711Z,3054.38
2018-06-02T12:26:04.769Z,3037.50
2018-06-02T12:27:04.829Z,3020.63
2018-06-02T12:28:04.916Z,2992.50
2018-06-02T12:29:04.945Z,2970.00
2018-06-02T12:30:05.008Z,2953.13
2018-06-02T12:31:05.062Z,2975.63
2018-06-02T12:32:05.117Z,2981.25
2018-06-02T12:33:05.202Z,2992.50
2018-06-02T12:34:05.234Z,3026.25
2018-06-02T12:35:05.318Z,3065.63